Time;durP1;ratioP1;P1;durP2;ratioP2;P2;SDS_P1;SDS_P2;PMS_P1;PMS_P2;Temp;Humidity;BMP_temperature;BMP_pressure;BME280_temperature;BME280_humidity;BME280_pressure;Samples;Min_cycle;Max_cycle;Signal;HPM_P1;HPM_P2
2021/09/10 00:01:57;;;;;;;;;6.00;5.67;;;;;19.75;76.85;100691.00;5064336;28;45452;-74
2021/09/10 00:04:23;;;;;;;;;8.67;6.67;;;;;19.79;77.49;100699.44;5062864;28;45331;-75
2021/09/10 00:06:50;;;;;;;;;5.33;5.33;;;;;19.77;76.99;100704.25;5064145;28;45284;-74
2021/09/10 00:09:16;;;;;;;;;6.33;5.67;;;;;19.78;76.92;100698.59;5060757;28;45370;-73
2021/09/10 00:11:41;;;;;;;;;6.33;5.00;;;;;19.78;76.96;100698.59;5060609;28;46024;-73
2021/09/10 00:14:06;;;;;;;;;6.00;5.00;;;;;19.83;76.97;100707.84;5059192;28;45235;-75
2021/09/10 00:16:32;;;;;;;;;8.00;7.00;;;;;19.83;76.84;100707.84;5060618;28;45189;-74
2021/09/10 00:18:57;;;;;;;;;6.00;6.00;;;;;19.86;77.02;100708.22;5060462;28;45240;-74
2021/09/10 00:21:22;;;;;;;;;6.67;6.00;;;;;19.89;76.39;100712.31;5060414;28;45232;-73
2021/09/10 00:23:48;;;;;;;;;7.00;7.00;;;;;19.89;76.84;100709.59;5061376;28;45378;-74
2021/09/10 00:26:13;;;;;;;;;7.00;6.00;;;;;19.90;76.67;100700.44;5064626;28;45196;-74
2021/09/10 00:28:38;;;;;;;;;6.00;6.00;;;;;19.91;77.00;100702.91;5064552;28;45440;-74
2021/09/10 00:31:04;;;;;;;;;7.00;5.67;;;;;19.90;76.82;100697.75;5078544;28;45391;-74
2021/09/10 00:33:29;;;;;;;;;5.00;5.00;;;;;19.92;76.90;100706.44;5083389;27;45317;-74
2021/09/10 00:35:56;;;;;;;;;5.33;5.33;;;;;19.93;76.55;100708.91;5081250;28;45255;-73
2021/09/10 00:38:21;;;;;;;;;7.67;7.33;;;;;19.96;76.91;100714.88;5080590;28;45244;-73
2021/09/10 00:40:47;;;;;;;;;7.67;7.67;;;;;19.97;76.67;100711.94;5079044;28;47974;-74
2021/09/10 00:43:13;;;;;;;;;8.00;7.67;;;;;20.00;76.48;100702.56;5080473;28;45325;-74
2021/09/10 00:45:43;;;;;;;;;5.67;5.67;;;;;20.01;76.78;100715.84;5080555;27;45484;-73
2021/09/10 00:48:08;;;;;;;;;5.67;5.67;;;;;20.00;76.44;100708.78;5079250;28;45345;-73
2021/09/10 00:50:34;;;;;;;;;6.00;6.00;;;;;20.01;77.03;100718.53;5080923;28;45159;-75
2021/09/10 00:53:00;;;;;;;;;6.00;6.00;;;;;20.04;76.91;100726.16;5081986;28;45306;-74
2021/09/10 00:55:26;;;;;;;;;7.67;7.67;;;;;20.03;76.93;100718.28;5084302;28;45314;-75
2021/09/10 00:57:52;;;;;;;;;7.33;7.00;;;;;20.04;76.69;100726.16;5083153;28;46121;-75
2021/09/10 01:00:17;;;;;;;;;8.00;8.00;;;;;20.00;76.94;100722.25;5082591;28;45284;-75
2021/09/10 01:02:42;;;;;;;;;6.67;6.00;;;;;20.02;77.03;100730.16;5082503;28;45322;-73
2021/09/10 01:05:08;;;;;;;;;6.00;6.00;;;;;20.02;77.07;100730.94;5080324;28;45365;-74
2021/09/10 01:07:34;;;;;;;;;8.33;7.00;;;;;20.03;77.28;100729.09;5080130;28;45313;-74
2021/09/10 01:10:00;;;;;;;;;9.67;7.00;;;;;20.04;76.97;100726.16;5080148;27;45326;-74
2021/09/10 01:12:29;;;;;;;;;6.33;6.00;;;;;20.04;76.63;100718.06;5080074;28;45358;-74
2021/09/10 01:14:56;;;;;;;;;8.00;7.67;;;;;20.09;76.70;100724.59;5080104;28;45248;-73
2021/09/10 01:17:22;;;;;;;;;5.33;5.00;;;;;20.09;76.68;100724.59;5079783;28;45411;-74
2021/09/10 01:19:47;;;;;;;;;7.00;7.00;;;;;20.09;76.91;100722.75;5080069;28;47430;-75
2021/09/10 01:22:13;;;;;;;;;5.00;5.00;;;;;20.10;76.45;100726.25;5082092;28;45321;-74
2021/09/10 01:25:03;;;;;;;;;6.00;6.00;;;;;20.10;76.78;100728.94;5082960;28;45248;-75
2021/09/10 01:27:28;;;;;;;;;4.67;4.67;;;;;20.09;76.26;100732.69;5076107;28;46578;-75
2021/09/10 01:29:54;;;;;;;;;7.00;7.00;;;;;20.08;76.38;100733.78;5076277;28;45490;-75
2021/09/10 01:32:19;;;;;;;;;6.00;5.00;;;;;20.09;76.71;100735.41;5060441;28;45288;-74
2021/09/10 01:34:45;;;;;;;;;7.00;6.33;;;;;20.06;76.56;100734.00;5059309;28;45206;-74
2021/09/10 01:37:10;;;;;;;;;6.00;5.00;;;;;20.05;76.30;100735.88;5058087;28;47137;-73
2021/09/10 01:39:35;;;;;;;;;5.33;5.33;;;;;20.05;76.42;100737.75;5059461;28;46349;-74
2021/09/10 01:42:01;;;;;;;;;4.67;4.67;;;;;20.01;76.61;100736.59;5059488;28;45185;-73
2021/09/10 01:44:26;;;;;;;;;5.00;5.00;;;;;20.03;76.93;100734.47;5060153;28;45298;-73
2021/09/10 01:46:51;;;;;;;;;5.00;5.00;;;;;20.02;77.01;100733.66;5063051;28;45210;-74
2021/09/10 01:49:17;;;;;;;;;4.00;4.00;;;;;20.05;76.22;100743.13;5061285;28;46981;-74
2021/09/10 01:51:42;;;;;;;;;6.33;6.33;;;;;20.07;76.52;100741.03;5062782;28;45377;-73
2021/09/10 01:54:08;;;;;;;;;6.33;5.33;;;;;20.10;76.34;100740.56;5063112;28;45228;-73
2021/09/10 01:56:33;;;;;;;;;7.00;7.00;;;;;20.11;76.62;100738.69;5062725;28;46066;-73
2021/09/10 01:58:59;;;;;;;;;5.33;5.33;;;;;20.12;76.33;100741.16;5062878;28;45305;-74
2021/09/10 02:01:25;;;;;;;;;5.00;4.67;;;;;20.15;76.47;100739.84;5062711;28;45240;-73
2021/09/10 02:03:52;;;;;;;;;5.00;5.00;;;;;20.13;76.38;100741.94;5062668;28;45335;-74
2021/09/10 02:06:18;;;;;;;;;4.33;4.33;;;;;20.12;76.79;100743.00;5064658;28;45186;-74
2021/09/10 02:08:43;;;;;;;;;5.00;5.00;;;;;20.11;76.51;100736.78;5065520;28;45340;-75
2021/09/10 02:11:09;;;;;;;;;4.67;4.67;;;;;20.10;76.95;100735.16;5065960;28;45151;-75
2021/09/10 02:13:34;;;;;;;;;5.00;5.00;;;;;20.06;76.56;100740.19;5065599;28;45260;-74
2021/09/10 02:15:59;;;;;;;;;5.67;4.00;;;;;20.06;76.79;100745.59;5065096;28;45323;-75
2021/09/10 02:18:25;;;;;;;;;4.00;3.67;;;;;20.05;76.71;100741.25;5062444;28;45283;-73
2021/09/10 02:20:52;;;;;;;;;5.67;5.00;;;;;20.03;76.57;100740.69;5062321;28;45317;-73
2021/09/10 02:23:18;;;;;;;;;6.67;6.67;;;;;20.06;76.73;100739.41;5061132;28;45403;-73
2021/09/10 02:25:43;;;;;;;;;5.33;5.00;;;;;20.06;76.97;100742.91;5062308;28;45330;-73
2021/09/10 02:28:08;;;;;;;;;3.33;3.33;;;;;20.06;77.09;100736.69;5062371;28;45347;-73
2021/09/10 02:30:34;;;;;;;;;5.00;5.00;;;;;20.04;77.13;100736.94;5072873;28;45298;-73
2021/09/10 02:33:00;;;;;;;;;4.67;4.67;;;;;20.05;77.19;100743.97;5081930;28;45353;-75
2021/09/10 02:35:25;;;;;;;;;5.33;5.33;;;;;20.04;77.09;100739.63;5085665;28;46074;-75
2021/09/10 02:37:51;;;;;;;;;5.00;5.00;;;;;20.04;77.17;100738.81;5084178;28;48254;-75
2021/09/10 02:40:16;;;;;;;;;5.00;5.00;;;;;20.04;77.32;100742.34;5084935;28;45304;-75
2021/09/10 02:42:41;;;;;;;;;6.00;6.00;;;;;20.04;77.33;100736.09;5086429;28;45827;-75
2021/09/10 02:45:07;;;;;;;;;4.67;4.00;;;;;20.04;76.93;100739.63;5085196;28;45302;-74
2021/09/10 02:47:32;;;;;;;;;4.00;4.00;;;;;20.02;76.85;100743.63;5082401;28;45295;-73
2021/09/10 02:49:58;;;;;;;;;5.33;5.33;;;;;20.02;77.45;100746.34;5082271;28;45203;-74
2021/09/10 02:52:23;;;;;;;;;6.00;4.00;;;;;20.01;77.87;100739.28;5082421;28;45332;-73
2021/09/10 02:54:48;;;;;;;;;7.00;5.33;;;;;20.00;77.38;100735.75;5080343;27;45406;-74
2021/09/10 02:57:14;;;;;;;;;3.67;3.67;;;;;19.98;77.06;100737.03;5081985;28;46105;-73
2021/09/10 02:59:39;;;;;;;;;4.00;4.00;;;;;19.99;77.19;100739.47;5082395;28;45177;-73
2021/09/10 03:02:05;;;;;;;;;4.00;4.00;;;;;19.99;77.44;100738.69;5082290;28;45271;-73
2021/09/10 03:04:30;;;;;;;;;6.67;6.67;;;;;20.00;77.74;100732.22;5083918;28;45251;-74
2021/09/10 03:06:55;;;;;;;;;4.00;4.00;;;;;20.00;77.84;100730.34;5083116;28;47143;-74
2021/09/10 03:09:21;;;;;;;;;4.67;4.00;;;;;19.99;77.64;100722.50;5084632;28;45216;-75
2021/09/10 03:11:46;;;;;;;;;5.00;4.00;;;;;20.00;77.23;100727.66;5085144;27;45326;-75
2021/09/10 03:14:11;;;;;;;;;7.33;7.33;;;;;20.01;77.51;100720.41;5085184;27;45255;-74
2021/09/10 03:16:37;;;;;;;;;5.67;5.67;;;;;20.01;77.62;100721.22;5082782;28;45216;-73
2021/09/10 03:19:02;;;;;;;;;4.33;4.00;;;;;20.02;77.32;100724.75;5081730;28;45403;-73
2021/09/10 03:21:28;;;;;;;;;4.33;4.33;;;;;20.03;77.69;100719.09;5082001;28;45280;-73
2021/09/10 03:23:53;;;;;;;;;7.33;5.00;;;;;20.05;77.76;100721.56;5081725;28;45476;-73
2021/09/10 03:26:19;;;;;;;;;4.33;4.33;;;;;20.05;77.59;100721.56;5080341;28;48360;-73
2021/09/10 03:28:44;;;;;;;;;5.67;5.67;;;;;20.01;77.79;100715.84;5081646;28;45248;-73
2021/09/10 03:31:10;;;;;;;;;5.00;4.00;;;;;20.01;77.46;100721.22;5066057;27;45304;-75
2021/09/10 03:33:35;;;;;;;;;6.00;6.00;;;;;19.99;77.66;100719.81;5063475;28;45318;-75
2021/09/10 03:36:00;;;;;;;;;4.00;4.00;;;;;19.96;77.43;100723.78;5063362;28;46061;-75
2021/09/10 03:38:26;;;;;;;;;5.00;5.00;;;;;19.96;77.44;100721.06;5063836;28;45330;-75
2021/09/10 03:40:51;;;;;;;;;4.67;4.67;;;;;19.91;77.66;100710.19;5063968;28;45210;-74
2021/09/10 03:43:17;;;;;;;;;6.33;5.00;;;;;19.94;77.44;100720.50;5063699;28;45240;-74
2021/09/10 03:45:42;;;;;;;;;4.33;4.33;;;;;19.92;77.55;100717.22;5060977;28;45497;-73
2021/09/10 03:48:07;;;;;;;;;5.33;5.33;;;;;19.85;77.43;100697.66;5059612;28;45313;-73
2021/09/10 03:50:33;;;;;;;;;6.00;6.00;;;;;19.92;77.68;100717.22;5061246;28;45313;-73
2021/09/10 03:52:58;;;;;;;;;5.33;5.33;;;;;19.91;78.09;100718.28;5061147;28;45476;-73
2021/09/10 03:55:24;;;;;;;;;4.67;4.00;;;;;19.88;77.53;100708.81;5060998;28;46194;-73
2021/09/10 03:57:49;;;;;;;;;4.33;4.33;;;;;19.90;77.62;100719.31;5060927;28;45211;-73
2021/09/10 04:00:14;;;;;;;;;6.00;6.00;;;;;19.91;77.93;100718.28;5061148;28;45216;-73
2021/09/10 04:02:40;;;;;;;;;6.33;6.00;;;;;19.88;77.77;100718.75;5061422;28;45236;-74
2021/09/10 04:05:06;;;;;;;;;5.67;5.67;;;;;19.91;78.01;100716.41;5063354;28;45981;-74
2021/09/10 04:07:31;;;;;;;;;6.00;6.00;;;;;19.93;77.75;100722.38;5061976;28;45233;-74
2021/09/10 04:09:56;;;;;;;;;6.00;6.00;;;;;19.93;77.54;100711.59;5063579;28;45186;-75
2021/09/10 04:12:22;;;;;;;;;6.00;6.00;;;;;19.93;78.00;100717.00;5063687;28;45442;-75
2021/09/10 04:14:47;;;;;;;;;8.33;8.33;;;;;19.93;77.96;100722.38;5062368;28;45381;-73
2021/09/10 04:17:12;;;;;;;;;6.00;5.33;;;;;19.93;77.84;100722.38;5060628;28;45577;-73
2021/09/10 04:19:38;;;;;;;;;8.33;8.33;;;;;19.96;78.12;100720.28;5060788;28;45284;-74
2021/09/10 04:22:03;;;;;;;;;2.67;2.00;;;;;19.98;77.90;100732.47;5060492;28;45441;-73
2021/09/10 04:24:28;;;;;;;;;7.00;7.00;;;;;19.98;78.01;100726.25;5059120;28;47539;-74
2021/09/10 04:26:54;;;;;;;;;8.00;7.00;;;;;20.00;78.18;100724.13;5060560;28;45294;-73
2021/09/10 04:29:19;;;;;;;;;8.67;8.33;;;;;19.99;77.97;100726.00;5060756;28;45400;-73
2021/09/10 04:31:45;;;;;;;;;7.67;7.67;;;;;19.99;77.66;100726.00;5081584;28;45389;-74
2021/09/10 04:34:10;;;;;;;;;6.00;6.00;;;;;20.03;77.51;100729.09;5082843;28;45798;-74
2021/09/10 04:36:35;;;;;;;;;7.33;7.33;;;;;20.01;77.88;100725.78;5082598;28;45299;-74
2021/09/10 04:39:01;;;;;;;;;8.00;7.00;;;;;20.01;77.77;100723.94;5082724;28;45304;-75
2021/09/10 04:41:26;;;;;;;;;4.33;4.33;;;;;19.97;77.69;100720.03;5082658;28;45275;-75
2021/09/10 04:43:52;;;;;;;;;9.00;9.00;;;;;20.01;78.19;100720.41;5082411;28;46439;-74
2021/09/10 04:46:17;;;;;;;;;8.00;8.00;;;;;20.01;78.18;100731.19;5079059;28;45266;-74
2021/09/10 04:48:43;;;;;;;;;7.67;7.67;;;;;20.03;78.22;100731.78;5080481;28;45264;-73
2021/09/10 04:51:08;;;;;;;;;8.67;8.67;;;;;20.04;78.31;100731.53;5080417;28;45230;-73
2021/09/10 04:53:33;;;;;;;;;8.67;8.33;;;;;20.03;78.30;100727.19;5080337;28;45449;-74
2021/09/10 04:55:59;;;;;;;;;8.33;7.00;;;;;20.05;77.95;100732.34;5080406;28;45259;-73
2021/09/10 04:58:25;;;;;;;;;7.33;6.33;;;;;20.04;78.24;100728.84;5080565;28;45627;-73
2021/09/10 05:00:50;;;;;;;;;8.67;8.67;;;;;20.04;77.85;100730.72;5079990;28;45378;-73
2021/09/10 05:03:16;;;;;;;;;11.33;9.33;;;;;20.06;77.80;100734.81;5079836;28;46218;-74
2021/09/10 05:05:41;;;;;;;;;9.00;8.00;;;;;20.08;78.10;100739.16;5060708;28;45353;-74
2021/09/10 05:08:06;;;;;;;;;8.00;8.00;;;;;20.05;77.96;100727.78;5061320;28;45315;-74
2021/09/10 05:10:32;;;;;;;;;9.00;8.00;;;;;20.06;78.40;100736.69;5062232;28;45247;-74
2021/09/10 05:12:57;;;;;;;;;8.67;7.33;;;;;20.06;77.92;100740.19;5063145;28;45325;-75
2021/09/10 05:15:22;;;;;;;;;9.67;9.67;;;;;20.08;77.87;100747.25;5061717;28;45347;-73
2021/09/10 05:17:48;;;;;;;;;8.67;8.67;;;;;20.09;77.77;100752.41;5059255;28;45267;-73
2021/09/10 05:20:13;;;;;;;;;8.33;8.00;;;;;20.08;77.63;100750.75;5059524;28;45399;-73
2021/09/10 05:22:39;;;;;;;;;7.67;7.67;;;;;20.09;78.01;100759.69;5059472;28;45429;-72
2021/09/10 05:25:07;;;;;;;;;9.33;9.33;;;;;20.08;78.12;100761.53;5059568;28;45298;-73
2021/09/10 05:27:33;;;;;;;;;8.33;8.33;;;;;20.08;77.97;100769.63;5059809;28;45294;-73
2021/09/10 05:29:58;;;;;;;;;9.67;9.67;;;;;20.08;78.16;100758.84;5065102;28;45390;-72
2021/09/10 05:32:24;;;;;;;;;11.00;9.67;;;;;20.10;78.05;100761.31;5079803;27;46194;-73
2021/09/10 05:34:50;;;;;;;;;11.00;10.00;;;;;20.10;78.04;100767.53;5079341;27;45298;-73
2021/09/10 05:37:15;;;;;;;;;9.33;9.00;;;;;20.10;78.14;100759.44;5079763;28;45290;-74
2021/09/10 05:39:40;;;;;;;;;9.33;9.33;;;;;20.12;77.90;100765.44;5080914;27;45482;-74
2021/09/10 05:42:06;;;;;;;;;9.67;8.67;;;;;20.12;78.16;100759.19;5079586;28;45288;-74
2021/09/10 05:44:31;;;;;;;;;11.33;10.00;;;;;20.13;78.06;100766.22;5079402;28;45363;-74
2021/09/10 05:46:57;;;;;;;;;9.00;9.00;;;;;20.11;78.37;100766.47;5079768;28;45378;-74
2021/09/10 05:49:22;;;;;;;;;8.67;8.67;;;;;20.08;78.23;100758.84;5079411;27;45353;-74
2021/09/10 05:51:47;;;;;;;;;11.33;10.67;;;;;20.10;78.21;100775.63;5079415;28;45352;-73
2021/09/10 05:54:13;;;;;;;;;11.00;10.00;;;;;20.11;77.45;100779.94;5079547;28;45342;-74
2021/09/10 05:56:38;;;;;;;;;10.00;8.67;;;;;20.12;78.40;100780.78;5079657;28;45665;-73
2021/09/10 05:59:03;;;;;;;;;11.67;11.00;;;;;20.09;78.28;100781.25;5065263;28;45400;-75
2021/09/10 06:01:29;;;;;;;;;9.33;8.00;;;;;20.13;77.94;100785.94;5059338;28;45386;-75
2021/09/10 06:03:55;;;;;;;;;9.67;9.67;;;;;20.15;78.17;100791.09;5058367;28;45277;-74
2021/09/10 06:06:20;;;;;;;;;11.67;11.67;;;;;20.18;78.33;100790.63;5059743;28;45489;-76
2021/09/10 06:08:45;;;;;;;;;9.33;9.33;;;;;20.16;78.20;100798.13;5058804;28;47292;-75
2021/09/10 06:11:11;;;;;;;;;9.33;9.33;;;;;20.13;77.93;100794.03;5059032;28;46078;-74
2021/09/10 06:13:36;;;;;;;;;15.00;13.67;;;;;20.17;78.12;100797.06;5059037;28;45256;-74
2021/09/10 06:16:01;;;;;;;;;16.33;16.33;;;;;20.18;77.74;100801.41;5059218;28;45245;-74
2021/09/10 06:18:27;;;;;;;;;14.00;14.00;;;;;20.20;77.84;100803.88;5056606;28;45877;-75
2021/09/10 06:20:55;;;;;;;;;12.33;12.33;;;;;20.22;77.67;100802.59;5058851;28;46021;-75
2021/09/10 06:23:21;;;;;;;;;8.33;8.33;;;;;20.24;77.82;100799.66;5058834;28;45224;-75
2021/09/10 06:25:46;;;;;;;;;11.67;11.67;;;;;20.26;77.81;100803.75;5059020;28;45236;-75
2021/09/10 06:28:12;;;;;;;;;8.33;8.33;;;;;20.26;77.97;100809.13;5057568;28;45892;-75
2021/09/10 06:30:37;;;;;;;;;9.67;9.00;;;;;20.27;77.50;100815.38;5069231;28;47642;-78
2021/09/10 06:33:02;;;;;;;;;9.00;8.33;;;;;20.29;77.92;100814.06;5082374;28;45388;-76
2021/09/10 06:35:28;;;;;;;;;9.33;8.33;;;;;20.30;77.83;100818.38;5082382;27;45330;-75
2021/09/10 06:37:53;;;;;;;;;7.67;7.67;;;;;20.34;77.87;100817.91;5082306;28;45352;-76
2021/09/10 06:40:19;;;;;;;;;10.00;10.00;;;;;20.35;78.16;100814.97;5080869;28;46704;-76
2021/09/10 06:42:45;;;;;;;;;8.67;8.67;;;;;20.36;77.78;100815.81;5074093;28;45405;-75
2021/09/10 06:45:12;;;;;;;;;9.00;9.00;;;;;20.38;78.10;100811.81;5061928;28;45267;-74
2021/09/10 06:47:38;;;;;;;;;7.00;7.00;;;;;20.41;77.59;100822.13;5061438;28;45504;-73
2021/09/10 06:50:09;;;;;;;;;10.33;10.00;;;;;20.41;78.00;100821.31;5061907;28;45451;-75
2021/09/10 06:52:39;;;;;;;;;9.00;9.00;;;;;20.44;77.57;100828.91;5061701;28;45399;-74
2021/09/10 06:55:05;;;;;;;;;10.00;10.00;;;;;20.48;77.53;100827.41;5062019;28;45236;-75
2021/09/10 06:57:31;;;;;;;;;13.00;13.00;;;;;20.50;77.84;100833.38;5061821;28;45201;-75
2021/09/10 06:59:56;;;;;;;;;12.00;11.00;;;;;20.53;77.25;100834.78;5061711;28;46029;-75
2021/09/10 07:02:22;;;;;;;;;8.33;8.33;;;;;20.54;77.54;100831.03;5061825;28;45275;-75
2021/09/10 07:04:47;;;;;;;;;10.33;10.00;;;;;20.55;77.92;100830.78;5059715;28;45461;-78
2021/09/10 07:07:12;;;;;;;;;11.33;11.33;;;;;20.54;77.66;100828.31;5061061;28;45521;-77
2021/09/10 07:09:39;;;;;;;;;10.00;10.00;;;;;20.58;77.44;100834.03;5061394;28;46194;-77
2021/09/10 07:12:05;;;;;;;;;13.67;12.67;;;;;20.61;76.96;100831.69;5059565;28;45277;-76
2021/09/10 07:14:32;;;;;;;;;10.00;8.67;;;;;20.61;77.31;100836.28;5059641;28;45433;-77
2021/09/10 07:16:57;;;;;;;;;9.33;9.33;;;;;20.64;77.21;100835.78;5060737;28;45467;-77
2021/09/10 07:19:23;;;;;;;;;9.67;9.67;;;;;20.65;77.15;100837.47;5060656;28;45405;-77
2021/09/10 07:21:48;;;;;;;;;11.33;10.67;;;;;20.66;76.97;100839.09;5061099;28;45223;-75
2021/09/10 07:24:13;;;;;;;;;12.67;12.00;;;;;20.72;77.11;100848.94;5061410;28;45419;-75
2021/09/10 07:26:39;;;;;;;;;10.67;10.67;;;;;20.76;77.13;100851.97;5061414;28;45284;-75
2021/09/10 07:29:04;;;;;;;;;12.67;11.67;;;;;20.83;77.24;100849.94;5061364;28;45586;-75
2021/09/10 07:31:30;;;;;;;;;13.33;13.00;;;;;20.87;77.30;100855.69;5079500;28;45301;-76
2021/09/10 07:33:55;;;;;;;;;10.67;10.67;;;;;20.90;77.02;100853.38;5081520;28;45260;-74
2021/09/10 07:36:20;;;;;;;;;11.67;11.67;;;;;20.91;77.10;100862.28;5080189;28;45483;-75
2021/09/10 07:38:46;;;;;;;;;11.33;11.33;;;;;20.93;77.33;100862.84;5081421;28;45213;-75
2021/09/10 07:41:11;;;;;;;;;10.33;10.33;;;;;20.97;77.03;100860.47;5060263;28;45197;-77
2021/09/10 07:43:36;;;;;;;;;10.00;10.00;;;;;20.97;77.04;100858.59;5061254;28;45179;-78
2021/09/10 07:46:03;;;;;;;;;11.67;10.00;;;;;21.01;76.41;100864.34;5059947;28;46309;-78
2021/09/10 07:48:28;;;;;;;;;11.33;10.33;;;;;21.08;76.07;100875.00;5059352;28;47710;-78
2021/09/10 07:50:53;;;;;;;;;10.00;9.33;;;;;21.08;76.21;100878.53;5060782;28;45318;-78
2021/09/10 07:53:19;;;;;;;;;14.00;12.67;;;;;21.11;76.47;100882.63;5059511;28;45261;-76
2021/09/10 07:55:46;;;;;;;;;13.67;10.67;;;;;21.13;76.04;100875.91;5060994;28;45366;-75
2021/09/10 07:58:12;;;;;;;;;11.67;11.67;;;;;21.12;76.30;100874.28;5059326;28;48196;-75
2021/09/10 08:00:38;;;;;;;;;13.33;12.00;;;;;21.15;76.37;100883.78;5059269;28;45373;-76
2021/09/10 08:03:03;;;;;;;;;10.67;9.67;;;;;21.16;75.70;100882.75;5061037;28;45278;-75
2021/09/10 08:05:28;;;;;;;;;11.67;11.67;;;;;21.16;75.94;100880.84;5059391;28;45554;-74
2021/09/10 08:07:54;;;;;;;;;11.67;10.67;;;;;21.15;76.15;100883.78;5059229;28;45964;-74
2021/09/10 08:10:19;;;;;;;;;10.67;10.00;;;;;21.18;76.01;100889.53;5060386;28;45351;-74
2021/09/10 08:12:46;;;;;;;;;14.00;14.00;;;;;21.19;75.60;100885.75;5060886;28;45273;-74
2021/09/10 08:15:16;;;;;;;;;10.33;9.67;;;;;21.23;76.08;100879.88;5060657;28;45472;-75
2021/09/10 08:17:42;;;;;;;;;10.33;10.00;;;;;21.28;75.97;100880.78;5060106;28;45434;-74
2021/09/10 08:20:10;;;;;;;;;11.33;11.33;;;;;21.26;75.14;100879.38;5059009;28;45272;-74
2021/09/10 08:22:37;;;;;;;;;12.33;11.00;;;;;21.29;75.93;100887.84;5059019;28;45265;-75
2021/09/10 08:25:05;;;;;;;;;8.00;7.67;;;;;21.24;75.49;100878.78;5060464;28;45357;-75
2021/09/10 08:27:31;;;;;;;;;11.33;10.33;;;;;21.27;75.12;100887.25;5058442;28;46612;-77
2021/09/10 08:29:58;;;;;;;;;10.33;9.67;;;;;21.28;75.64;100891.59;5063885;28;45461;-77
2021/09/10 08:32:23;;;;;;;;;13.33;12.33;;;;;21.34;75.49;100897.09;5061066;27;45556;-78
2021/09/10 08:34:53;;;;;;;;;11.33;10.00;;;;;21.36;75.82;100895.78;5058651;28;45405;-76
2021/09/10 08:37:19;;;;;;;;;11.33;10.33;;;;;21.42;75.55;100899.38;5058702;28;45557;-76
2021/09/10 08:39:48;;;;;;;;;12.00;12.00;;;;;21.42;75.64;100899.38;5058610;28;45389;-77
2021/09/10 08:42:14;;;;;;;;;15.33;11.67;;;;;21.48;75.03;100909.25;5058904;28;45282;-74
2021/09/10 08:44:42;;;;;;;;;10.67;10.67;;;;;21.51;74.90;100903.34;5058449;28;45921;-75
2021/09/10 08:47:09;;;;;;;;;11.00;10.00;;;;;21.49;74.65;100902.75;5060097;28;45720;-74
2021/09/10 08:49:35;;;;;;;;;12.33;12.33;;;;;21.56;74.60;100905.31;5058371;28;45373;-75
2021/09/10 08:52:01;;;;;;;;;12.33;11.33;;;;;21.61;74.76;100891.88;5058821;28;45259;-75
2021/09/10 08:54:27;;;;;;;;;11.00;11.00;;;;;21.70;74.14;100906.63;5059213;28;45378;-75
2021/09/10 08:56:53;;;;;;;;;11.33;11.33;;;;;21.74;74.40;100914.25;5055918;28;46017;-74
2021/09/10 08:59:20;;;;;;;;;9.00;9.00;;;;;21.78;74.04;100908.16;5059773;28;45318;-75
2021/09/10 09:01:51;;;;;;;;;9.00;8.67;;;;;21.83;73.53;100907.41;5059498;28;45363;-74
2021/09/10 09:04:17;;;;;;;;;10.67;10.33;;;;;21.89;73.79;100916.41;5056938;28;45535;-74
2021/09/10 09:06:45;;;;;;;;;11.67;11.67;;;;;21.95;73.52;100910.03;5057857;28;45465;-74
2021/09/10 09:09:11;;;;;;;;;9.33;9.00;;;;;21.99;73.63;100913.03;5058270;28;45239;-75
2021/09/10 09:11:39;;;;;;;;;12.00;10.67;;;;;22.11;73.47;100916.47;5058254;28;45347;-75
2021/09/10 09:14:06;;;;;;;;;8.67;7.67;;;;;22.24;73.48;100928.03;5058320;28;45552;-75
2021/09/10 09:16:32;;;;;;;;;12.33;12.00;;;;;22.31;73.00;100924.09;5058865;28;46380;-75
2021/09/10 09:19:08;;;;;;;;;12.67;11.00;;;;;22.38;72.31;100914.94;5057839;28;45239;-75
2021/09/10 09:21:36;;;;;;;;;9.67;9.67;;;;;22.44;72.61;100922.06;5058177;28;45283;-75
2021/09/10 09:24:13;;;;;;;;;10.67;10.67;;;;;22.49;72.57;100919.44;5057301;28;46054;-75
2021/09/10 09:26:45;;;;;;;;;10.33;10.33;;;;;22.53;71.81;100923.28;5059470;28;46909;-75
2021/09/10 09:29:14;;;;;;;;;9.33;8.33;;;;;22.53;71.22;100917.03;5058300;28;45902;-74
2021/09/10 09:31:41;;;;;;;;;8.33;8.33;;;;;22.56;71.89;100928.22;5055425;28;45404;-75
2021/09/10 09:34:09;;;;;;;;;9.67;9.67;;;;;22.53;71.52;100936.84;5058731;28;45488;-76
2021/09/10 09:36:50;;;;;;;;;9.00;9.00;;;;;22.55;71.49;100947.41;5057653;28;45557;-73
2021/09/10 09:39:16;;;;;;;;;10.33;9.67;;;;;22.56;71.02;100938.22;5058042;28;45287;-75
2021/09/10 09:41:45;;;;;;;;;11.00;8.67;;;;;22.62;70.65;100944.56;5059333;28;45305;-75
2021/09/10 09:44:15;;;;;;;;;9.33;8.00;;;;;22.60;70.67;100930.44;5057617;28;45405;-74
2021/09/10 09:46:41;;;;;;;;;9.33;9.00;;;;;22.67;70.68;100928.38;5058259;28;46827;-75
2021/09/10 09:49:09;;;;;;;;;8.00;7.33;;;;;22.70;70.45;100934.13;5058750;28;45296;-75
2021/09/10 09:51:35;;;;;;;;;8.67;8.67;;;;;22.79;70.12;100945.31;5059158;28;45254;-75
2021/09/10 09:54:04;;;;;;;;;10.00;10.00;;;;;22.92;69.99;100937.88;5058446;28;45535;-75
2021/09/10 09:56:30;;;;;;;;;8.00;8.00;;;;;23.10;70.15;100947.56;5057799;28;46359;-76
2021/09/10 09:58:56;;;;;;;;;8.67;7.33;;;;;23.19;68.11;100931.66;5059115;28;45316;-74
2021/09/10 10:01:22;;;;;;;;;7.67;7.67;;;;;23.30;67.85;100936.13;5059238;28;45375;-74
2021/09/10 10:03:48;;;;;;;;;8.33;7.00;;;;;23.38;67.75;100932.19;5058723;28;45447;-74
2021/09/10 10:06:23;;;;;;;;;11.00;10.00;;;;;23.46;67.83;100936.28;5060654;28;45329;-73
2021/09/10 10:08:55;;;;;;;;;9.00;7.67;;;;;23.56;67.48;100938.31;5062315;28;45224;-75
2021/09/10 10:11:28;;;;;;;;;8.00;8.00;;;;;23.70;67.76;100935.97;5063496;28;45307;-75
2021/09/10 10:13:59;;;;;;;;;7.00;6.67;;;;;23.82;67.69;100933.91;5063880;28;45304;-76
2021/09/10 10:16:40;;;;;;;;;9.00;8.00;;;;;23.96;67.63;100930.75;5066901;28;46133;-77
2021/09/10 10:19:08;;;;;;;;;9.33;8.33;;;;;24.03;66.13;100925.91;5066383;28;45351;-77
2021/09/10 10:21:52;;;;;;;;;7.33;7.33;;;;;24.03;64.95;100920.47;5067824;28;45168;-77
2021/09/10 10:24:55;;;;;;;;;9.33;8.00;;;;;24.05;66.63;100918.34;5065017;28;45505;-75
2021/09/10 10:27:37;;;;;;;;;8.00;7.00;;;;;24.02;66.94;100913.44;5063055;28;45299;-75
2021/09/10 10:30:34;;;;;;;;;6.33;6.33;;;;;23.99;65.46;100913.13;5063538;28;45461;-75
2021/09/10 10:32:59;;;;;;;;;10.33;8.67;;;;;23.94;65.89;100916.59;5064776;28;45302;-76
2021/09/10 10:35:39;;;;;;;;;8.33;8.00;;;;;23.93;66.48;100915.81;5062573;28;44964;-75
2021/09/10 10:38:09;;;;;;;;;6.33;6.33;;;;;23.93;65.58;100921.25;5062280;28;46682;-75
2021/09/10 10:40:42;;;;;;;;;8.67;8.67;;;;;24.02;66.08;100902.56;5060867;28;45410;-75
2021/09/10 10:43:18;;;;;;;;;5.67;5.00;;;;;24.06;65.34;100903.66;5062163;28;45398;-74
2021/09/10 10:45:47;;;;;;;;;6.33;6.33;;;;;24.20;65.58;100908.66;5061713;28;45409;-73
2021/09/10 10:48:27;;;;;;;;;7.33;7.00;;;;;24.28;65.59;100902.75;5061763;28;45382;-74
2021/09/10 10:50:53;;;;;;;;;7.67;7.00;;;;;24.40;64.93;100899.84;5061875;28;45333;-76
2021/09/10 10:53:18;;;;;;;;;7.00;7.00;;;;;24.54;65.05;100902.06;5061948;28;45287;-76
2021/09/10 10:55:44;;;;;;;;;7.00;7.00;;;;;24.59;64.59;100900.19;5061910;28;45321;-77
2021/09/10 10:58:23;;;;;;;;;8.33;8.33;;;;;24.64;65.04;100893.97;5061836;28;45435;-75
2021/09/10 11:00:51;;;;;;;;;6.00;6.00;;;;;24.69;65.46;100895.88;5062024;28;45215;-75
2021/09/10 11:03:17;;;;;;;;;5.00;5.00;;;;;24.78;64.84;100898.91;5061859;28;45319;-76
2021/09/10 11:05:44;;;;;;;;;8.00;8.00;;;;;24.78;64.01;100896.19;5060475;28;46016;-75
2021/09/10 11:08:09;;;;;;;;;7.33;7.00;;;;;24.82;60.91;100887.22;5061648;28;46051;-76
2021/09/10 11:10:35;;;;;;;;;8.67;7.00;;;;;24.87;62.48;100899.19;5061685;28;45247;-76
2021/09/10 11:13:01;;;;;;;;;6.00;6.00;;;;;24.94;64.15;100902.50;5060421;28;45318;-76
2021/09/10 11:15:35;;;;;;;;;5.33;5.33;;;;;24.93;62.96;100901.66;5060646;28;46133;-76
2021/09/10 11:18:11;;;;;;;;;7.33;7.33;;;;;24.93;60.87;100890.00;5060756;28;46122;-77
2021/09/10 11:20:44;;;;;;;;;8.00;6.00;;;;;25.02;61.88;100888.38;5061578;28;45288;-77